sensor_id;sensor_type;location;lat;lon;timestamp;pressure;altitude;pressure_sealevel;temperature;humidity
25722;BME280;13578;53.450;15.496;2023-05-01T00:00:23;100380.28;;;1.74;100.00
25722;BME280;13578;53.450;15.496;2023-05-01T00:03:24;100373.28;;;1.70;100.00
25722;BME280;13578;53.450;15.496;2023-05-01T00:06:25;100364.72;;;1.58;100.00
25722;BME280;13578;53.450;15.496;2023-05-01T00:09:28;100365.47;;;1.62;100.00
25722;BME280;13578;53.450;15.496;2023-05-01T00:12:29;100361.09;;;1.59;100.00
25722;BME280;13578;53.450;15.496;2023-05-01T00:15:31;100367.72;;;1.52;100.00
25722;BME280;13578;53.450;15.496;2023-05-01T00:18:31;100356.34;;;1.44;100.00
25722;BME280;13578;53.450;15.496;2023-05-01T00:21:32;100357.09;;;1.48;100.00
25722;BME280;13578;53.450;15.496;2023-05-01T00:24:32;100359.94;;;1.45;100.00
25722;BME280;13578;53.450;15.496;2023-05-01T00:27:33;100367.22;;;1.42;100.00
25722;BME280;13578;53.450;15.496;2023-05-01T00:30:34;100365.16;;;1.49;100.00
25722;BME280;13578;53.450;15.496;2023-05-01T00:33:35;100366.91;;;1.50;100.00
25722;BME280;13578;53.450;15.496;2023-05-01T00:36:35;100360.81;;;1.45;100.00
25722;BME280;13578;53.450;15.496;2023-05-01T00:39:36;100357.50;;;1.38;100.00
25722;BME280;13578;53.450;15.496;2023-05-01T00:42:37;100350.44;;;1.34;100.00
25722;BME280;13578;53.450;15.496;2023-05-01T00:45:43;100352.69;;;1.24;100.00
25722;BME280;13578;53.450;15.496;2023-05-01T00:48:44;100347.59;;;1.17;100.00
25722;BME280;13578;53.450;15.496;2023-05-01T00:51:47;100348.47;;;1.17;100.00
25722;BME280;13578;53.450;15.496;2023-05-01T00:54:48;100339.53;;;1.15;100.00
25722;BME280;13578;53.450;15.496;2023-05-01T00:57:52;100334.19;;;1.14;100.00
25722;BME280;13578;53.450;15.496;2023-05-01T01:00:54;100330.69;;;1.11;100.00
25722;BME280;13578;53.450;15.496;2023-05-01T01:03:55;100326.91;;;1.16;100.00
25722;BME280;13578;53.450;15.496;2023-05-01T01:10:36;100327.50;;;1.02;100.00
25722;BME280;13578;53.450;15.496;2023-05-01T01:13:57;100317.47;;;0.83;100.00
25722;BME280;13578;53.450;15.496;2023-05-01T01:20:32;100308.84;;;0.95;100.00
25722;BME280;13578;53.450;15.496;2023-05-01T01:24:20;100317.88;;;0.94;100.00
25722;BME280;13578;53.450;15.496;2023-05-01T01:30:32;100323.22;;;0.96;100.00
25722;BME280;13578;53.450;15.496;2023-05-01T01:33:48;100315.19;;;0.94;100.00
25722;BME280;13578;53.450;15.496;2023-05-01T01:36:59;100304.28;;;0.96;100.00
25722;BME280;13578;53.450;15.496;2023-05-01T01:40:06;100301.66;;;0.94;100.00
25722;BME280;13578;53.450;15.496;2023-05-01T01:43:11;100296.84;;;0.81;100.00
25722;BME280;13578;53.450;15.496;2023-05-01T01:46:17;100284.78;;;0.67;100.00
25722;BME280;13578;53.450;15.496;2023-05-01T01:49:23;100288.97;;;0.74;100.00
25722;BME280;13578;53.450;15.496;2023-05-01T01:52:25;100280.00;;;0.74;100.00
25722;BME280;13578;53.450;15.496;2023-05-01T01:55:29;100281.44;;;0.83;100.00
25722;BME280;13578;53.450;15.496;2023-05-01T01:58:31;100279.81;;;0.78;100.00
25722;BME280;13578;53.450;15.496;2023-05-01T02:01:35;100279.75;;;0.80;100.00
25722;BME280;13578;53.450;15.496;2023-05-01T02:04:37;100278.53;;;0.87;100.00
25722;BME280;13578;53.450;15.496;2023-05-01T02:07:39;100269.16;;;0.96;100.00
25722;BME280;13578;53.450;15.496;2023-05-01T02:10:42;100262.25;;;0.89;100.00
25722;BME280;13578;53.450;15.496;2023-05-01T02:13:44;100265.97;;;0.86;100.00
25722;BME280;13578;53.450;15.496;2023-05-01T02:16:46;100264.28;;;0.84;100.00
25722;BME280;13578;53.450;15.496;2023-05-01T02:19:47;100272.31;;;0.85;100.00
25722;BME280;13578;53.450;15.496;2023-05-01T02:22:50;100260.56;;;0.86;100.00
25722;BME280;13578;53.450;15.496;2023-05-01T02:25:52;100260.38;;;0.91;100.00
25722;BME280;13578;53.450;15.496;2023-05-01T02:28:56;100264.91;;;0.90;100.00
25722;BME280;13578;53.450;15.496;2023-05-01T02:31:58;100260.44;;;0.89;100.00
25722;BME280;13578;53.450;15.496;2023-05-01T02:34:59;100260.09;;;0.97;100.00
25722;BME280;13578;53.450;15.496;2023-05-01T02:38:00;100251.31;;;0.92;100.00
25722;BME280;13578;53.450;15.496;2023-05-01T02:41:02;100256.84;;;0.89;100.00
25722;BME280;13578;53.450;15.496;2023-05-01T02:44:04;100249.00;;;0.83;100.00
25722;BME280;13578;53.450;15.496;2023-05-01T02:47:08;100256.06;;;0.87;100.00
25722;BME280;13578;53.450;15.496;2023-05-01T02:50:10;100244.00;;;0.73;100.00
25722;BME280;13578;53.450;15.496;2023-05-01T02:53:13;100251.16;;;0.74;100.00
25722;BME280;13578;53.450;15.496;2023-05-01T02:56:15;100254.59;;;0.78;100.00
25722;BME280;13578;53.450;15.496;2023-05-01T02:59:15;100258.50;;;0.71;100.00
25722;BME280;13578;53.450;15.496;2023-05-01T03:02:16;100255.63;;;0.75;100.00
25722;BME280;13578;53.450;15.496;2023-05-01T03:05:16;100246.38;;;0.59;100.00
25722;BME280;13578;53.450;15.496;2023-05-01T03:08:19;100254.63;;;0.56;100.00
25722;BME280;13578;53.450;15.496;2023-05-01T03:11:20;100254.38;;;0.62;100.00
25722;BME280;13578;53.450;15.496;2023-05-01T03:14:20;100241.81;;;0.61;100.00
25722;BME280;13578;53.450;15.496;2023-05-01T03:17:21;100244.44;;;0.62;100.00
25722;BME280;13578;53.450;15.496;2023-05-01T03:20:22;100245.44;;;0.60;100.00
25722;BME280;13578;53.450;15.496;2023-05-01T03:23:24;100239.81;;;0.66;100.00
25722;BME280;13578;53.450;15.496;2023-05-01T03:26:25;100247.97;;;0.65;100.00
25722;BME280;13578;53.450;15.496;2023-05-01T03:29:26;100247.34;;;0.58;100.00
25722;BME280;13578;53.450;15.496;2023-05-01T03:32:27;100235.34;;;0.65;100.00
25722;BME280;13578;53.450;15.496;2023-05-01T03:35:28;100236.97;;;0.69;100.00
25722;BME280;13578;53.450;15.496;2023-05-01T03:38:32;100233.44;;;0.67;100.00
25722;BME280;13578;53.450;15.496;2023-05-01T03:41:33;100221.44;;;0.74;100.00
25722;BME280;13578;53.450;15.496;2023-05-01T03:44:33;100241.88;;;1.02;100.00
25722;BME280;13578;53.450;15.496;2023-05-01T03:47:34;100236.66;;;1.39;100.00
25722;BME280;13578;53.450;15.496;2023-05-01T03:50:35;100237.59;;;1.78;100.00
25722;BME280;13578;53.450;15.496;2023-05-01T03:53:36;100254.03;;;2.13;100.00
25722;BME280;13578;53.450;15.496;2023-05-01T03:56:36;100251.44;;;2.29;100.00
25722;BME280;13578;53.450;15.496;2023-05-01T03:59:37;100263.56;;;2.39;100.00
25722;BME280;13578;53.450;15.496;2023-05-01T04:02:38;100255.22;;;2.44;100.00
25722;BME280;13578;53.450;15.496;2023-05-01T04:05:39;100273.28;;;2.62;100.00
25722;BME280;13578;53.450;15.496;2023-05-01T04:08:39;100255.19;;;2.99;100.00
25722;BME280;13578;53.450;15.496;2023-05-01T04:11:40;100271.69;;;3.30;100.00
25722;BME280;13578;53.450;15.496;2023-05-01T04:14:41;100272.00;;;3.24;100.00
25722;BME280;13578;53.450;15.496;2023-05-01T04:17:43;100258.34;;;2.90;100.00
25722;BME280;13578;53.450;15.496;2023-05-01T04:20:44;100257.53;;;2.70;100.00
25722;BME280;13578;53.450;15.496;2023-05-01T04:23:45;100260.38;;;2.67;100.00
25722;BME280;13578;53.450;15.496;2023-05-01T04:26:45;100257.34;;;2.74;100.00
25722;BME280;13578;53.450;15.496;2023-05-01T04:29:46;100269.25;;;2.71;100.00
25722;BME280;13578;53.450;15.496;2023-05-01T04:32:47;100257.84;;;2.82;100.00
25722;BME280;13578;53.450;15.496;2023-05-01T04:35:47;100249.81;;;2.98;100.00
25722;BME280;13578;53.450;15.496;2023-05-01T04:38:48;100256.06;;;3.17;100.00
25722;BME280;13578;53.450;15.496;2023-05-01T04:41:49;100255.16;;;3.34;100.00
25722;BME280;13578;53.450;15.496;2023-05-01T04:44:50;100262.78;;;3.61;100.00
25722;BME280;13578;53.450;15.496;2023-05-01T04:47:50;100258.91;;;3.83;100.00
25722;BME280;13578;53.450;15.496;2023-05-01T04:50:51;100265.25;;;4.16;100.00
25722;BME280;13578;53.450;15.496;2023-05-01T04:53:52;100253.00;;;4.40;100.00
25722;BME280;13578;53.450;15.496;2023-05-01T04:56:53;100266.88;;;4.68;100.00
25722;BME280;13578;53.450;15.496;2023-05-01T04:59:53;100267.88;;;4.81;100.00
25722;BME280;13578;53.450;15.496;2023-05-01T05:02:54;100264.88;;;5.02;100.00
25722;BME280;13578;53.450;15.496;2023-05-01T05:05:55;100259.88;;;5.24;100.00
25722;BME280;13578;53.450;15.496;2023-05-01T05:08:55;100255.06;;;5.44;100.00
25722;BME280;13578;53.450;15.496;2023-05-01T05:11:57;100258.81;;;5.57;100.00
25722;BME280;13578;53.450;15.496;2023-05-01T05:14:57;100251.69;;;5.69;100.00
25722;BME280;13578;53.450;15.496;2023-05-01T05:17:58;100255.59;;;5.80;100.00
25722;BME280;13578;53.450;15.496;2023-05-01T05:21:02;100254.63;;;5.95;100.00
25722;BME280;13578;53.450;15.496;2023-05-01T05:24:04;100258.56;;;6.20;100.00
25722;BME280;13578;53.450;15.496;2023-05-01T05:27:04;100244.81;;;6.22;100.00
25722;BME280;13578;53.450;15.496;2023-05-01T05:30:07;100249.88;;;6.28;100.00
25722;BME280;13578;53.450;15.496;2023-05-01T05:33:08;100256.81;;;6.46;100.00
25722;BME280;13578;53.450;15.496;2023-05-01T05:36:08;100237.81;;;6.59;100.00
25722;BME280;13578;53.450;15.496;2023-05-01T05:39:09;100239.63;;;6.73;100.00
25722;BME280;13578;53.450;15.496;2023-05-01T05:42:10;100228.09;;;6.82;100.00
25722;BME280;13578;53.450;15.496;2023-05-01T05:45:10;100237.06;;;6.97;100.00
25722;BME280;13578;53.450;15.496;2023-05-01T05:48:11;100223.56;;;7.09;100.00
25722;BME280;13578;53.450;15.496;2023-05-01T05:51:12;100231.13;;;7.18;100.00
25722;BME280;13578;53.450;15.496;2023-05-01T05:54:13;100207.44;;;7.19;100.00
25722;BME280;13578;53.450;15.496;2023-05-01T05:57:14;100212.38;;;7.39;100.00
25722;BME280;13578;53.450;15.496;2023-05-01T06:00:14;100199.38;;;7.43;100.00
25722;BME280;13578;53.450;15.496;2023-05-01T06:03:16;100193.47;;;7.36;100.00
25722;BME280;13578;53.450;15.496;2023-05-01T06:06:17;100183.53;;;7.35;100.00
25722;BME280;13578;53.450;15.496;2023-05-01T06:09:17;100200.25;;;7.43;100.00
25722;BME280;13578;53.450;15.496;2023-05-01T06:12:19;100191.19;;;7.56;100.00
25722;BME280;13578;53.450;15.496;2023-05-01T06:15:20;100189.09;;;7.72;100.00
25722;BME280;13578;53.450;15.496;2023-05-01T06:18:21;100171.50;;;7.76;100.00
25722;BME280;13578;53.450;15.496;2023-05-01T06:21:22;100188.75;;;7.77;100.00
25722;BME280;13578;53.450;15.496;2023-05-01T06:24:22;100190.59;;;7.89;100.00
25722;BME280;13578;53.450;15.496;2023-05-01T06:27:23;100180.72;;;8.13;100.00
25722;BME280;13578;53.450;15.496;2023-05-01T06:30:24;100179.81;;;8.25;100.00
25722;BME280;13578;53.450;15.496;2023-05-01T06:33:25;100190.28;;;8.31;100.00
25722;BME280;13578;53.450;15.496;2023-05-01T06:36:25;100197.75;;;8.66;100.00
25722;BME280;13578;53.450;15.496;2023-05-01T06:39:27;100188.59;;;8.79;100.00
25722;BME280;13578;53.450;15.496;2023-05-01T06:42:27;100174.94;;;8.90;100.00
25722;BME280;13578;53.450;15.496;2023-05-01T06:45:28;100189.28;;;8.94;100.00
25722;BME280;13578;53.450;15.496;2023-05-01T06:48:29;100184.22;;;9.12;100.00
25722;BME280;13578;53.450;15.496;2023-05-01T06:51:29;100198.75;;;9.36;100.00
25722;BME280;13578;53.450;15.496;2023-05-01T06:54:30;100205.50;;;9.55;100.00
25722;BME280;13578;53.450;15.496;2023-05-01T06:57:31;100183.84;;;9.63;100.00
25722;BME280;13578;53.450;15.496;2023-05-01T07:00:32;100167.69;;;9.83;100.00
25722;BME280;13578;53.450;15.496;2023-05-01T07:03:33;100178.50;;;9.96;100.00
25722;BME280;13578;53.450;15.496;2023-05-01T07:06:34;100150.47;;;10.04;100.00
25722;BME280;13578;53.450;15.496;2023-05-01T07:09:35;100149.81;;;10.11;100.00
25722;BME280;13578;53.450;15.496;2023-05-01T07:12:35;100152.56;;;10.23;100.00
25722;BME280;13578;53.450;15.496;2023-05-01T07:15:36;100130.47;;;10.24;100.00
25722;BME280;13578;53.450;15.496;2023-05-01T07:18:37;100150.53;;;10.47;100.00
25722;BME280;13578;53.450;15.496;2023-05-01T07:21:39;100141.75;;;10.65;100.00
25722;BME280;13578;53.450;15.496;2023-05-01T07:24:40;100110.63;;;10.76;100.00
25722;BME280;13578;53.450;15.496;2023-05-01T07:27:41;100114.72;;;11.03;100.00
25722;BME280;13578;53.450;15.496;2023-05-01T07:30:41;100120.41;;;11.11;100.00
25722;BME280;13578;53.450;15.496;2023-05-01T07:33:42;100096.50;;;11.02;97.12
25722;BME280;13578;53.450;15.496;2023-05-01T07:36:42;100106.44;;;11.14;98.05
25722;BME280;13578;53.450;15.496;2023-05-01T07:39:43;100098.44;;;11.32;94.82
25722;BME280;13578;53.450;15.496;2023-05-01T07:42:44;100103.13;;;11.41;95.20
25722;BME280;13578;53.450;15.496;2023-05-01T07:45:55;100100.28;;;11.53;96.97
25722;BME280;13578;53.450;15.496;2023-05-01T07:48:56;100082.94;;;11.52;93.50
25722;BME280;13578;53.450;15.496;2023-05-01T07:51:57;100094.25;;;11.69;96.60
25722;BME280;13578;53.450;15.496;2023-05-01T07:54:57;100082.25;;;12.01;94.74
25722;BME280;13578;53.450;15.496;2023-05-01T07:57:58;100070.97;;;12.04;92.59
25722;BME280;13578;53.450;15.496;2023-05-01T08:00:59;100074.91;;;12.11;92.32
25722;BME280;13578;53.450;15.496;2023-05-01T08:04:00;100064.44;;;12.05;89.74
25722;BME280;13578;53.450;15.496;2023-05-01T08:07:00;100071.41;;;11.99;90.87
25722;BME280;13578;53.450;15.496;2023-05-01T08:10:01;100068.22;;;12.04;90.21
25722;BME280;13578;53.450;15.496;2023-05-01T08:13:02;100050.25;;;12.00;88.09
25722;BME280;13578;53.450;15.496;2023-05-01T08:16:03;100081.78;;;11.96;94.13
25722;BME280;13578;53.450;15.496;2023-05-01T08:19:04;100061.00;;;12.22;90.95
25722;BME280;13578;53.450;15.496;2023-05-01T08:22:04;100042.91;;;12.30;89.37
25722;BME280;13578;53.450;15.496;2023-05-01T08:25:05;100067.25;;;12.44;90.59
25722;BME280;13578;53.450;15.496;2023-05-01T08:28:06;100066.25;;;12.55;92.91
25722;BME280;13578;53.450;15.496;2023-05-01T08:31:07;100063.94;;;12.70;88.94
25722;BME280;13578;53.450;15.496;2023-05-01T08:34:08;100038.97;;;12.81;85.23
25722;BME280;13578;53.450;15.496;2023-05-01T08:37:09;100040.84;;;12.91;84.59
25722;BME280;13578;53.450;15.496;2023-05-01T08:40:09;100028.06;;;12.99;81.39
25722;BME280;13578;53.450;15.496;2023-05-01T08:43:11;100064.88;;;13.08;89.20
25722;BME280;13578;53.450;15.496;2023-05-01T08:46:16;100031.53;;;13.11;82.94
25722;BME280;13578;53.450;15.496;2023-05-01T08:49:24;100055.44;;;13.21;85.01
25722;BME280;13578;53.450;15.496;2023-05-01T08:52:27;100030.97;;;13.08;82.62
25722;BME280;13578;53.450;15.496;2023-05-01T08:55:30;100026.50;;;12.97;81.52
25722;BME280;13578;53.450;15.496;2023-05-01T08:58:32;100031.38;;;13.13;84.26
25722;BME280;13578;53.450;15.496;2023-05-01T09:01:34;100036.56;;;13.26;83.39
25722;BME280;13578;53.450;15.496;2023-05-01T09:04:39;100000.84;;;13.34;79.87
25722;BME280;13578;53.450;15.496;2023-05-01T09:07:41;100032.78;;;13.27;83.36
25722;BME280;13578;53.450;15.496;2023-05-01T09:10:44;100008.66;;;13.48;79.04
25722;BME280;13578;53.450;15.496;2023-05-01T09:13:47;100008.31;;;13.61;78.91
25722;BME280;13578;53.450;15.496;2023-05-01T09:16:48;100014.66;;;13.90;81.46
25722;BME280;13578;53.450;15.496;2023-05-01T09:19:49;99985.13;;;14.00;77.11
25722;BME280;13578;53.450;15.496;2023-05-01T09:22:50;99983.88;;;14.12;76.09
25722;BME280;13578;53.450;15.496;2023-05-01T09:25:51;99972.59;;;14.24;71.57
25722;BME280;13578;53.450;15.496;2023-05-01T09:28:52;99991.56;;;13.91;77.42
25722;BME280;13578;53.450;15.496;2023-05-01T09:35:19;100000.28;;;13.40;80.22
25722;BME280;13578;53.450;15.496;2023-05-01T09:38:22;99972.84;;;13.66;78.11
25722;BME280;13578;53.450;15.496;2023-05-01T09:41:23;99937.97;;;13.93;70.19
25722;BME280;13578;53.450;15.496;2023-05-01T09:44:24;99940.44;;;14.14;69.27
25722;BME280;13578;53.450;15.496;2023-05-01T09:47:27;99928.50;;;14.32;69.33
25722;BME280;13578;53.450;15.496;2023-05-01T09:50:29;99939.84;;;14.47;68.20
25722;BME280;13578;53.450;15.496;2023-05-01T09:53:37;99892.56;;;14.50;61.76
25722;BME280;13578;53.450;15.496;2023-05-01T09:56:45;99905.63;;;14.40;62.49
25722;BME280;13578;53.450;15.496;2023-05-01T10:00:02;99894.41;;;14.41;61.40
25722;BME280;13578;53.450;15.496;2023-05-01T10:03:12;99891.78;;;14.58;61.19
25722;BME280;13578;53.450;15.496;2023-05-01T10:06:26;99885.88;;;14.53;59.85
25722;BME280;13578;53.450;15.496;2023-05-01T10:09:28;99943.94;;;14.61;67.58
25722;BME280;13578;53.450;15.496;2023-05-01T10:12:29;99910.84;;;14.69;64.55
25722;BME280;13578;53.450;15.496;2023-05-01T10:15:35;99890.22;;;14.82;61.15
25722;BME280;13578;53.450;15.496;2023-05-01T10:18:37;99930.03;;;14.97;67.61
25722;BME280;13578;53.450;15.496;2023-05-01T10:21:37;99896.34;;;15.02;62.20
25722;BME280;13578;53.450;15.496;2023-05-01T10:24:39;99871.97;;;14.89;60.04
25722;BME280;13578;53.450;15.496;2023-05-01T10:27:40;99871.66;;;15.00;60.13
25722;BME280;13578;53.450;15.496;2023-05-01T10:30:41;99872.03;;;15.05;60.34
25722;BME280;13578;53.450;15.496;2023-05-01T10:33:46;99867.94;;;15.18;60.80
25722;BME280;13578;53.450;15.496;2023-05-01T10:36:54;99888.03;;;15.36;63.08
25722;BME280;13578;53.450;15.496;2023-05-01T10:39:56;99846.03;;;15.33;57.98
25722;BME280;13578;53.450;15.496;2023-05-01T10:43:29;99846.78;;;15.43;57.46
25722;BME280;13578;53.450;15.496;2023-05-01T10:46:30;99812.19;;;15.31;54.35
25722;BME280;13578;53.450;15.496;2023-05-01T10:50:06;99843.66;;;15.38;56.50
25722;BME280;13578;53.450;15.496;2023-05-01T11:06:20;99818.78;;;15.54;56.52
25722;BME280;13578;53.450;15.496;2023-05-01T11:09:35;99809.81;;;15.52;55.59
25722;BME280;13578;53.450;15.496;2023-05-01T11:12:50;99798.97;;;15.84;56.26
25722;BME280;13578;53.450;15.496;2023-05-01T11:15:51;99807.28;;;15.92;55.77
25722;BME280;13578;53.450;15.496;2023-05-01T11:18:52;99807.28;;;16.00;56.79
25722;BME280;13578;53.450;15.496;2023-05-01T11:21:53;99795.00;;;15.95;55.68
25722;BME280;13578;53.450;15.496;2023-05-01T11:24:54;99757.09;;;15.95;52.56
25722;BME280;13578;53.450;15.496;2023-05-01T11:28:00;99769.56;;;16.08;52.97
25722;BME280;13578;53.450;15.496;2023-05-01T11:31:01;99770.91;;;16.20;53.39
25722;BME280;13578;53.450;15.496;2023-05-01T11:34:03;99744.59;;;16.24;50.78
25722;BME280;13578;53.450;15.496;2023-05-01T11:37:05;99733.72;;;16.23;49.56
25722;BME280;13578;53.450;15.496;2023-05-01T11:40:24;99740.81;;;16.17;49.18
25722;BME280;13578;53.450;15.496;2023-05-01T11:43:25;99733.72;;;16.23;49.68
25722;BME280;13578;53.450;15.496;2023-05-01T11:46:27;99813.81;;;16.32;58.01
25722;BME280;13578;53.450;15.496;2023-05-01T11:49:28;99760.16;;;16.25;53.89
25722;BME280;13578;53.450;15.496;2023-05-01T11:52:28;99744.97;;;16.21;53.89
25722;BME280;13578;53.450;15.496;2023-05-01T11:55:31;99704.59;;;16.35;49.39
25722;BME280;13578;53.450;15.496;2023-05-01T11:58:33;99720.66;;;16.48;51.25
25722;BME280;13578;53.450;15.496;2023-05-01T12:01:39;99747.41;;;16.64;54.10
25722;BME280;13578;53.450;15.496;2023-05-01T12:04:40;99727.44;;;16.77;51.71
25722;BME280;13578;53.450;15.496;2023-05-01T12:07:41;99696.66;;;16.72;49.40
25722;BME280;13578;53.450;15.496;2023-05-01T12:10:42;99687.69;;;16.61;48.92
25722;BME280;13578;53.450;15.496;2023-05-01T12:13:43;99741.00;;;16.72;54.23
25722;BME280;13578;53.450;15.496;2023-05-01T12:16:47;99696.84;;;16.70;51.13
25722;BME280;13578;53.450;15.496;2023-05-01T12:19:48;99701.94;;;16.90;51.35
25722;BME280;13578;53.450;15.496;2023-05-01T12:22:49;99709.56;;;16.88;51.75
25722;BME280;13578;53.450;15.496;2023-05-01T12:25:50;99705.19;;;17.02;52.15
25722;BME280;13578;53.450;15.496;2023-05-01T12:29:00;99700.19;;;17.20;52.36
25722;BME280;13578;53.450;15.496;2023-05-01T12:32:01;99646.16;;;17.16;48.90
25722;BME280;13578;53.450;15.496;2023-05-01T12:35:14;99660.16;;;16.91;49.32
25722;BME280;13578;53.450;15.496;2023-05-01T12:38:20;99662.97;;;17.14;49.76
25722;BME280;13578;53.450;15.496;2023-05-01T12:41:51;99630.88;;;17.20;46.84
25722;BME280;13578;53.450;15.496;2023-05-01T12:44:58;99634.69;;;17.19;49.00
25722;BME280;13578;53.450;15.496;2023-05-01T12:48:00;99618.25;;;17.18;47.25
25722;BME280;13578;53.450;15.496;2023-05-01T12:51:00;99591.09;;;17.13;45.98
25722;BME280;13578;53.450;15.496;2023-05-01T12:54:01;99605.56;;;16.68;47.12
25722;BME280;13578;53.450;15.496;2023-05-01T12:57:09;99617.44;;;16.54;48.96
25722;BME280;13578;53.450;15.496;2023-05-01T13:00:10;99606.13;;;16.64;48.90
25722;BME280;13578;53.450;15.496;2023-05-01T13:03:13;99606.91;;;16.81;49.03
25722;BME280;13578;53.450;15.496;2023-05-01T13:06:16;99639.16;;;17.05;51.92
25722;BME280;13578;53.450;15.496;2023-05-01T13:09:16;99629.63;;;17.46;50.81
25722;BME280;13578;53.450;15.496;2023-05-01T13:12:18;99551.88;;;17.54;45.32
25722;BME280;13578;53.450;15.496;2023-05-01T13:15:19;99571.59;;;17.59;47.44
25722;BME280;13578;53.450;15.496;2023-05-01T13:18:20;99525.56;;;17.65;42.98
25722;BME280;13578;53.450;15.496;2023-05-01T13:21:22;99539.94;;;17.69;44.11
25722;BME280;13578;53.450;15.496;2023-05-01T13:24:34;99573.59;;;17.81;46.38
25722;BME280;13578;53.450;15.496;2023-05-01T13:27:36;99567.75;;;17.75;46.46
25722;BME280;13578;53.450;15.496;2023-05-01T13:30:36;99557.06;;;17.72;46.17
25722;BME280;13578;53.450;15.496;2023-05-01T13:33:39;99567.00;;;17.67;47.68
25722;BME280;13578;53.450;15.496;2023-05-01T13:36:40;99546.91;;;17.65;46.45
25722;BME280;13578;53.450;15.496;2023-05-01T13:39:42;99519.25;;;17.71;43.99
25722;BME280;13578;53.450;15.496;2023-05-01T13:42:42;99549.78;;;17.71;48.65
25722;BME280;13578;53.450;15.496;2023-05-01T13:45:43;99554.25;;;17.57;48.58
25722;BME280;13578;53.450;15.496;2023-05-01T13:48:44;99543.66;;;17.46;47.54
25722;BME280;13578;53.450;15.496;2023-05-01T13:51:48;99557.19;;;17.26;49.05
25722;BME280;13578;53.450;15.496;2023-05-01T13:54:51;99517.69;;;17.24;45.00
25722;BME280;13578;53.450;15.496;2023-05-01T13:57:54;99484.00;;;17.12;43.32
25722;BME280;13578;53.450;15.496;2023-05-01T14:00:54;99519.47;;;17.02;45.91
25722;BME280;13578;53.450;15.496;2023-05-01T14:03:56;99552.81;;;17.08;49.19
25722;BME280;13578;53.450;15.496;2023-05-01T14:06:57;99503.59;;;17.10;45.29
25722;BME280;13578;53.450;15.496;2023-05-01T14:09:59;99519.97;;;17.20;47.44
25722;BME280;13578;53.450;15.496;2023-05-01T14:13:00;99511.56;;;17.28;46.63
25722;BME280;13578;53.450;15.496;2023-05-01T14:16:07;99472.84;;;17.65;43.94
25722;BME280;13578;53.450;15.496;2023-05-01T14:19:14;99481.34;;;17.63;43.54
25722;BME280;13578;53.450;15.496;2023-05-01T14:22:15;99490.06;;;17.45;44.91
25722;BME280;13578;53.450;15.496;2023-05-01T14:25:27;99495.81;;;17.29;45.66
25722;BME280;13578;53.450;15.496;2023-05-01T14:28:29;99527.44;;;17.20;47.93
25722;BME280;13578;53.450;15.496;2023-05-01T14:31:30;99481.47;;;17.25;44.89
25722;BME280;13578;53.450;15.496;2023-05-01T14:34:31;99487.56;;;17.21;46.13
25722;BME280;13578;53.450;15.496;2023-05-01T14:37:32;99489.47;;;17.20;46.28
25722;BME280;13578;53.450;15.496;2023-05-01T14:40:33;99467.13;;;17.22;44.35
25722;BME280;13578;53.450;15.496;2023-05-01T14:43:34;99503.16;;;17.22;47.74
25722;BME280;13578;53.450;15.496;2023-05-01T14:46:35;99512.28;;;17.07;49.49
25722;BME280;13578;53.450;15.496;2023-05-01T14:49:36;99498.63;;;17.06;48.45
25722;BME280;13578;53.450;15.496;2023-05-01T14:52:40;99504.94;;;17.14;48.39
25722;BME280;13578;53.450;15.496;2023-05-01T14:55:41;99484.81;;;17.36;47.33
25722;BME280;13578;53.450;15.496;2023-05-01T14:58:42;99459.47;;;17.54;45.35
25722;BME280;13578;53.450;15.496;2023-05-01T15:01:43;99487.69;;;17.42;47.43
25722;BME280;13578;53.450;15.496;2023-05-01T15:04:43;99475.91;;;17.25;47.21
25722;BME280;13578;53.450;15.496;2023-05-01T15:07:44;99455.03;;;16.99;45.88
25722;BME280;13578;53.450;15.496;2023-05-01T15:10:46;99467.66;;;17.02;46.52
25722;BME280;13578;53.450;15.496;2023-05-01T15:13:46;99446.03;;;16.97;45.28
25722;BME280;13578;53.450;15.496;2023-05-01T15:16:49;99482.50;;;16.86;47.24
25722;BME280;13578;53.450;15.496;2023-05-01T15:19:50;99476.47;;;16.82;48.05
25722;BME280;13578;53.450;15.496;2023-05-01T15:22:51;99486.28;;;16.93;48.37
25722;BME280;13578;53.450;15.496;2023-05-01T15:25:52;99514.69;;;16.95;51.09
25722;BME280;13578;53.450;15.496;2023-05-01T15:28:52;99491.31;;;16.90;48.57
25722;BME280;13578;53.450;15.496;2023-05-01T15:31:53;99502.91;;;16.93;50.22
25722;BME280;13578;53.450;15.496;2023-05-01T15:34:53;99492.22;;;17.05;49.53
25722;BME280;13578;53.450;15.496;2023-05-01T15:37:55;99487.19;;;17.24;48.71
25722;BME280;13578;53.450;15.496;2023-05-01T15:40:56;99465.66;;;17.41;47.30
25722;BME280;13578;53.450;15.496;2023-05-01T15:43:57;99444.34;;;17.41;46.26
25722;BME280;13578;53.450;15.496;2023-05-01T15:46:58;99460.53;;;17.38;47.31
25722;BME280;13578;53.450;15.496;2023-05-01T15:49:58;99479.53;;;17.26;48.88
25722;BME280;13578;53.450;15.496;2023-05-01T15:52:59;99448.66;;;17.14;47.32
25722;BME280;13578;53.450;15.496;2023-05-01T15:55:59;99452.75;;;17.03;47.78
25722;BME280;13578;53.450;15.496;2023-05-01T15:59:01;99450.78;;;16.89;48.08
25722;BME280;13578;53.450;15.496;2023-05-01T16:02:04;99426.53;;;16.91;46.56
25722;BME280;13578;53.450;15.496;2023-05-01T16:05:06;99435.19;;;16.88;47.30
25722;BME280;13578;53.450;15.496;2023-05-01T16:08:07;99484.00;;;16.97;52.08
25722;BME280;13578;53.450;15.496;2023-05-01T16:11:08;99462.91;;;16.88;49.92